Enaville, Idaho
Current Conditions -  °F | °C
As of 10:15 AM on Saturday 22 Nov 2014 (Local Time) from KCOE Reporting Station
Clear Clear  
Wind Chill: 32°   Ceiling: Unl
Heat Index: 39°   Visibility: 10mi
Dew Point: 30°   Wind: 13mph
Humidity: 70%   Direction: 250°WSW
Pressure: 29.64"   Gusts: NA
Location:  47.5619°N, 116.294°W
Report Text: KCOE 221815Z AUTO 25011KT 10SM CLR 04/M01 A2964 RMK AO1
Loading
Personal Weather Stations






























Interactive Weather Map New forecast layout! Learn more

10-Day Weather Forecast

Advertisements
Track Severe Weather on mobile